Time;durP1;ratioP1;P1;durP2;ratioP2;P2;SDS_P1;SDS_P2;PMS_P1;PMS_P2;Temp;Humidity;BMP_temperature;BMP_pressure;BME280_temperature;BME280_humidity;BME280_pressure;Samples;Min_cycle;Max_cycle;Signal;HPM_P1;HPM_P2
2023/05/13 00:01:56;;;;;;;26.90;16.10;;;;;;;8.44;97.13;101588.89;105652;1260;62938;-84
2023/05/13 00:04:23;;;;;;;21.50;14.90;;;;;;;8.43;97.23;101587.91;105791;1260;60813;-86
2023/05/13 00:06:51;;;;;;;21.10;14.10;;;;;;;8.41;97.20;101591.11;105870;1254;74826;-87
2023/05/13 00:09:17;;;;;;;22.10;13.90;;;;;;;8.36;97.23;101590.73;105835;1259;64669;-85
2023/05/13 00:11:45;;;;;;;22.10;13.20;;;;;;;8.30;97.41;101593.73;105778;1258;73499;-86
2023/05/13 00:14:12;;;;;;;21.60;13.40;;;;;;;8.26;98.08;101594.70;105741;1265;61877;-85
2023/05/13 00:16:39;;;;;;;24.60;15.60;;;;;;;8.29;98.63;101593.05;105821;1257;60849;-85
2023/05/13 00:19:06;;;;;;;26.70;15.90;;;;;;;8.31;98.25;101592.97;105772;1260;75014;-85
2023/05/13 00:21:34;;;;;;;22.10;15.00;;;;;;;8.30;98.17;101593.02;105719;1259;64074;-86
2023/05/13 00:24:01;;;;;;;20.00;14.90;;;;;;;8.27;98.08;101595.02;105731;1254;74497;-85
2023/05/13 00:26:28;;;;;;;22.00;14.60;;;;;;;8.24;98.05;101590.95;105773;1259;61664;-87
2023/05/13 00:28:55;;;;;;;19.60;12.30;;;;;;;8.20;97.88;101593.19;105736;1259;61221;-88
2023/05/13 00:31:21;;;;;;;18.20;13.10;;;;;;;8.15;97.94;101595.09;105573;1260;73859;-88
2023/05/13 00:33:48;;;;;;;18.50;13.40;;;;;;;8.12;98.51;101598.52;105623;1260;64830;-87
2023/05/13 00:36:15;;;;;;;17.80;12.30;;;;;;;8.11;98.91;101599.41;105875;1254;72750;-87
2023/05/13 00:38:43;;;;;;;19.30;13.90;;;;;;;8.11;99.16;101602.02;105839;1259;62792;-84
2023/05/13 00:41:10;;;;;;;19.60;12.40;;;;;;;8.12;99.00;101602.70;106098;1258;60363;-85
2023/05/13 00:43:37;;;;;;;18.60;11.80;;;;;;;8.12;99.00;101601.65;105896;1264;74784;-85
2023/05/13 00:46:06;;;;;;;24.20;14.50;;;;;;;8.11;99.07;101601.67;105796;1255;64693;-85
2023/05/13 00:48:34;;;;;;;19.90;13.10;;;;;;;8.11;98.75;101598.71;105522;1254;73923;-86
2023/05/13 00:51:01;;;;;;;16.70;12.80;;;;;;;8.10;98.72;101599.97;105771;1259;61190;-86
2023/05/13 00:53:28;;;;;;;16.50;12.70;;;;;;;8.08;98.48;101601.43;105752;1259;60597;-86
2023/05/13 00:55:55;;;;;;;16.00;12.60;;;;;;;8.04;98.23;101602.94;105734;1260;74896;-86
2023/05/13 00:58:23;;;;;;;19.70;13.00;;;;;;;7.99;98.20;101602.94;105683;1260;64918;-86
2023/05/13 01:01:05;;;;;;;18.30;12.30;;;;;;;7.95;98.32;101607.43;105691;1258;71577;-85
2023/05/13 01:03:39;;;;;;;17.70;12.20;;;;;;;7.90;98.33;101607.77;105734;1258;62724;-87
2023/05/13 01:06:15;;;;;;;21.20;12.50;;;;;;;7.86;98.51;101604.77;105846;1259;61412;-88
2023/05/13 01:08:46;;;;;;;17.00;11.40;;;;;;;7.82;98.43;101603.89;105758;1254;75481;-88
2023/05/13 01:11:16;;;;;;;15.40;11.20;;;;;;;7.78;98.50;101606.95;105807;1255;65416;-87
2023/05/13 01:13:45;;;;;;;18.00;12.10;;;;;;;7.75;98.79;101601.66;105769;1254;73122;-86
2023/05/13 01:16:20;;;;;;;17.20;11.30;;;;;;;7.74;98.99;101601.34;105620;1261;61795;-86
2023/05/13 01:18:52;;;;;;;15.80;11.10;;;;;;;7.73;98.93;101598.40;105735;1254;60450;-86
2023/05/13 01:21:25;;;;;;;15.30;10.30;;;;;;;7.72;98.62;101594.79;105827;1254;74283;-85
2023/05/13 01:23:52;;;;;;;17.30;11.30;;;;;;;7.71;98.85;101595.18;105619;1261;64602;-85
2023/05/13 01:26:20;;;;;;;15.10;12.10;;;;;;;7.70;98.92;101598.17;107151;1254;73996;-84
2023/05/13 01:28:47;;;;;;;19.30;13.20;;;;;;;7.69;98.56;101598.88;107252;1262;60514;-83
2023/05/13 01:31:14;;;;;;;21.00;12.50;;;;;;;7.68;98.66;101597.68;105748;1260;60524;-86
2023/05/13 01:33:41;;;;;;;17.40;12.30;;;;;;;7.64;98.47;101596.24;105724;1260;74648;-87
2023/05/13 01:36:09;;;;;;;19.20;15.20;;;;;;;7.60;98.39;101597.95;105650;1260;64562;-87
2023/05/13 01:38:37;;;;;;;28.10;18.90;;;;;;;7.55;98.77;101596.18;105581;1260;72635;-86
2023/05/13 01:41:04;;;;;;;30.00;23.20;;;;;;;7.51;98.71;101596.49;105666;1254;63447;-88
2023/05/13 01:43:32;;;;;;;23.70;18.00;;;;;;;7.46;98.99;101597.16;105672;1254;60984;-86
2023/05/13 01:46:00;;;;;;;21.90;17.70;;;;;;;7.42;99.41;101601.11;105741;1254;75582;-85
2023/05/13 01:48:27;;;;;;;23.40;15.70;;;;;;;7.41;99.60;101603.75;105988;1259;63942;-85
2023/05/13 01:50:54;;;;;;;19.90;15.10;;;;;;;7.42;99.95;101606.34;105803;1254;73733;-85
2023/05/13 01:53:23;;;;;;;20.40;14.20;;;;;;;7.44;100.00;101605.76;105853;1260;61885;-87
2023/05/13 01:55:51;;;;;;;18.20;14.80;;;;;;;7.46;100.00;101606.36;105908;1254;60378;-87
2023/05/13 01:58:18;;;;;;;17.90;14.30;;;;;;;7.51;100.00;101609.22;105730;1254;74860;-84
2023/05/13 02:00:46;;;;;;;22.20;15.40;;;;;;;7.53;100.00;101610.02;105781;1254;64702;-87
2023/05/13 02:03:13;;;;;;;20.50;14.90;;;;;;;7.53;100.00;101612.80;105681;1260;72620;-86
2023/05/13 02:05:42;;;;;;;22.10;15.50;;;;;;;7.53;100.00;101611.92;105703;1259;62005;-88
2023/05/13 02:08:09;;;;;;;21.30;14.10;;;;;;;7.51;100.00;101608.69;105755;1259;61402;-85
2023/05/13 02:10:37;;;;;;;20.20;15.90;;;;;;;7.47;99.98;101606.02;107972;1254;73945;-83
2023/05/13 02:13:04;;;;;;;19.90;15.20;;;;;;;7.43;99.96;101607.02;107896;1254;64066;-83
2023/05/13 02:15:32;;;;;;;19.30;15.50;;;;;;;7.39;99.90;101613.56;106833;1259;72401;-88
2023/05/13 02:17:59;;;;;;;19.90;15.40;;;;;;;7.35;100.00;101613.50;105738;1259;62677;-87
2023/05/13 02:20:27;;;;;;;20.30;14.60;;;;;;;7.34;100.00;101615.14;105665;1259;61851;-85
2023/05/13 02:22:54;;;;;;;22.80;15.00;;;;;;;7.32;100.00;101613.94;105691;1260;75358;-84
2023/05/13 02:25:21;;;;;;;18.50;13.40;;;;;;;7.34;100.00;101616.33;105779;1254;63722;-86
2023/05/13 02:27:48;;;;;;;26.20;14.00;;;;;;;7.36;100.00;101614.18;105706;1255;73626;-85
2023/05/13 02:30:15;;;;;;;21.30;14.00;;;;;;;7.38;100.00;101610.98;106002;1260;61948;-85
2023/05/13 02:32:45;;;;;;;25.00;13.90;;;;;;;7.40;99.99;101612.48;105912;1254;61150;-87
2023/05/13 02:35:12;;;;;;;20.60;14.70;;;;;;;7.43;100.00;101610.67;105857;1260;74958;-85
2023/05/13 02:37:39;;;;;;;26.90;15.30;;;;;;;7.45;99.94;101610.24;107636;1260;63809;-83
2023/05/13 02:40:09;;;;;;;27.50;15.90;;;;;;;7.47;99.56;101612.45;108263;1254;72635;-84
2023/05/13 02:42:36;;;;;;;28.30;16.70;;;;;;;7.48;99.37;101613.46;107243;1255;62090;-87
2023/05/13 02:45:03;;;;;;;25.00;15.50;;;;;;;7.47;99.06;101615.58;106422;1261;60432;-86
2023/05/13 02:47:31;;;;;;;27.70;14.10;;;;;;;7.46;98.90;101616.67;106340;1254;75373;-84
2023/05/13 02:50:04;;;;;;;26.90;14.20;;;;;;;7.44;99.27;101620.88;106157;1254;64715;-84
2023/05/13 02:52:34;;;;;;;21.50;12.80;;;;;;;7.45;99.33;101623.30;105832;1255;73469;-85
2023/05/13 02:55:02;;;;;;;21.10;13.30;;;;;;;7.47;99.53;101627.59;105851;1257;62912;-84
2023/05/13 02:57:29;;;;;;;19.50;13.70;;;;;;;7.51;99.80;101624.48;105892;1260;61826;-85
2023/05/13 02:59:56;;;;;;;25.60;15.00;;;;;;;7.56;99.93;101626.26;105768;1260;74634;-84
2023/05/13 03:02:23;;;;;;;21.20;14.50;;;;;;;7.62;99.76;101629.05;105726;1254;63747;-85
2023/05/13 03:04:50;;;;;;;22.10;15.00;;;;;;;7.66;99.35;101630.83;105758;1254;72841;-87
2023/05/13 03:07:17;;;;;;;27.30;16.00;;;;;;;7.69;99.21;101636.11;105638;1254;61459;-87
2023/05/13 03:09:44;;;;;;;29.50;16.10;;;;;;;7.71;99.16;101637.80;105694;1254;61278;-87
2023/05/13 03:12:11;;;;;;;26.20;14.50;;;;;;;7.74;99.16;101641.39;105833;1260;74509;-86
2023/05/13 03:14:38;;;;;;;21.20;13.40;;;;;;;7.75;99.11;101642.88;105749;1255;64183;-83
2023/05/13 03:17:05;;;;;;;23.90;13.00;;;;;;;7.79;99.42;101646.43;105700;1254;73751;-85
2023/05/13 03:19:35;;;;;;;29.10;14.50;;;;;;;7.85;99.59;101648.66;105697;1259;62753;-85
2023/05/13 03:22:02;;;;;;;22.60;13.30;;;;;;;7.97;99.69;101649.52;105696;1254;61224;-84
2023/05/13 03:24:29;;;;;;;17.90;12.20;;;;;;;8.07;99.71;101646.73;105691;1254;73825;-85
2023/05/13 03:26:58;;;;;;;25.40;13.10;;;;;;;8.18;99.87;101644.47;105830;1259;64050;-84
2023/05/13 03:29:26;;;;;;;28.10;13.50;;;;;;;8.31;99.91;101652.73;105477;1258;73461;-85
2023/05/13 03:31:53;;;;;;;20.00;12.50;;;;;;;8.42;99.99;101650.83;105744;1259;60443;-87
2023/05/13 03:34:20;;;;;;;22.20;13.50;;;;;;;8.51;99.77;101648.98;105655;1254;60441;-87
2023/05/13 03:36:47;;;;;;;23.90;13.40;;;;;;;8.55;99.69;101648.63;105730;1258;73940;-84
2023/05/13 03:39:15;;;;;;;24.60;14.00;;;;;;;8.60;99.82;101648.98;105710;1259;64265;-86
2023/05/13 03:41:44;;;;;;;31.40;13.50;;;;;;;8.65;99.68;101653.33;105733;1254;72200;-87
2023/05/13 03:44:11;;;;;;;28.90;13.50;;;;;;;8.72;99.75;101650.50;105721;1259;62026;-85
2023/05/13 03:46:38;;;;;;;22.80;13.90;;;;;;;8.80;99.63;101649.48;105791;1259;60561;-85
2023/05/13 03:49:06;;;;;;;27.80;13.20;;;;;;;8.92;99.44;101650.46;105768;1255;74624;-86
2023/05/13 03:51:33;;;;;;;26.10;14.70;;;;;;;9.05;99.59;101651.05;105740;1254;63879;-85
2023/05/13 03:54:01;;;;;;;30.10;14.40;;;;;;;9.18;99.59;101652.80;105827;1254;73614;-85
2023/05/13 03:56:28;;;;;;;26.30;14.80;;;;;;;9.34;99.27;101652.74;105807;1259;61240;-84
2023/05/13 03:58:55;;;;;;;27.00;15.10;;;;;;;9.48;99.04;101653.59;105780;1260;60409;-85
2023/05/13 04:01:22;;;;;;;23.70;13.40;;;;;;;9.63;98.72;101657.20;105812;1259;74678;-83
2023/05/13 04:03:49;;;;;;;18.80;12.70;;;;;;;9.76;98.63;101652.83;105867;1259;64702;-85
2023/05/13 04:06:16;;;;;;;22.20;12.60;;;;;;;9.91;98.12;101657.64;105776;1254;73714;-86
2023/05/13 04:08:47;;;;;;;19.40;12.30;;;;;;;10.08;97.61;101659.76;105803;1256;62075;-85
2023/05/13 04:11:16;;;;;;;17.30;11.90;;;;;;;10.26;97.03;101664.45;105878;1254;61091;-86
2023/05/13 04:13:44;;;;;;;20.60;12.00;;;;;;;10.45;96.56;101667.66;105708;1254;75313;-87
2023/05/13 04:16:12;;;;;;;25.80;12.90;;;;;;;10.71;96.09;101672.70;105755;1259;63815;-88
2023/05/13 04:18:39;;;;;;;22.70;13.50;;;;;;;11.03;95.32;101674.05;105734;1258;73585;-85
2023/05/13 04:21:07;;;;;;;16.80;12.40;;;;;;;11.41;94.00;101674.96;105744;1254;60575;-85
2023/05/13 04:23:34;;;;;;;19.60;12.00;;;;;;;11.79;92.43;101675.10;105855;1254;60440;-88
2023/05/13 04:26:00;;;;;;;33.60;13.20;;;;;;;12.17;91.16;101680.98;105748;1254;75525;-86
2023/05/13 04:28:30;;;;;;;19.90;11.20;;;;;;;12.54;89.56;101683.17;106345;1254;64805;-84
2023/05/13 04:30:59;;;;;;;20.20;11.50;;;;;;;12.94;87.98;101684.04;107435;1254;73585;-86
2023/05/13 04:33:26;;;;;;;16.30;10.00;;;;;;;13.37;86.00;101682.50;108979;1254;60401;-83
2023/05/13 04:35:53;;;;;;;12.90;8.10;;;;;;;13.80;83.09;101680.48;106571;1254;60626;-85
2023/05/13 04:38:20;;;;;;;10.10;8.10;;;;;;;14.23;80.89;101682.91;106235;1254;73093;-86
2023/05/13 04:40:46;;;;;;;15.20;9.10;;;;;;;14.68;79.46;101684.88;106083;1254;63620;-87
2023/05/13 04:43:17;;;;;;;17.30;8.50;;;;;;;15.11;77.72;101684.85;107464;1254;72358;-85
2023/05/13 04:45:51;;;;;;;14.30;8.80;;;;;;;15.50;75.26;101684.21;108535;1256;60162;-83
2023/05/13 04:48:18;;;;;;;11.30;8.30;;;;;;;15.84;73.78;101678.17;106450;1255;59698;-85
2023/05/13 04:50:45;;;;;;;19.00;9.80;;;;;;;16.15;72.36;101676.45;106336;1255;75605;-85
2023/05/13 04:53:15;;;;;;;24.20;8.90;;;;;;;16.42;70.91;101673.77;105989;1254;64603;-85
2023/05/13 04:55:47;;;;;;;15.30;8.60;;;;;;;16.69;69.03;101672.48;105943;1254;72654;-88
2023/05/13 04:58:14;;;;;;;13.50;8.20;;;;;;;17.05;68.27;101673.92;105868;1261;60569;-87
2023/05/13 05:00:41;;;;;;;12.90;7.70;;;;;;;17.48;65.59;101674.05;105876;1254;61366;-86
2023/05/13 05:03:08;;;;;;;15.70;8.60;;;;;;;17.96;63.78;101671.43;105806;1258;73283;-87
2023/05/13 05:05:36;;;;;;;21.40;7.20;;;;;;;18.49;61.26;101670.05;105859;1254;64737;-87
2023/05/13 05:08:04;;;;;;;15.10;7.10;;;;;;;19.02;57.99;101671.14;105890;1257;73856;-86
2023/05/13 05:10:31;;;;;;;9.90;7.60;;;;;;;19.52;54.66;101671.02;105992;1254;60440;-85
2023/05/13 05:13:00;;;;;;;11.20;6.70;;;;;;;20.01;52.30;101668.98;106134;1259;60711;-85
2023/05/13 05:15:28;;;;;;;16.60;7.80;;;;;;;20.49;49.10;101673.98;105881;1254;74667;-85
2023/05/13 05:17:58;;;;;;;11.20;6.30;;;;;;;20.96;47.47;101676.90;106198;1254;64862;-85
2023/05/13 05:20:26;;;;;;;6.90;5.40;;;;;;;21.36;44.54;101672.19;106032;1256;72609;-85
2023/05/13 05:22:58;;;;;;;10.00;6.80;;;;;;;21.71;41.53;101674.36;105770;1259;61489;-85
2023/05/13 05:25:27;;;;;;;10.20;6.00;;;;;;;22.01;41.39;101672.76;105796;1254;60416;-85
2023/05/13 05:27:54;;;;;;;6.20;5.40;;;;;;;22.33;40.92;101671.98;106172;1254;74243;-86
2023/05/13 05:30:22;;;;;;;9.10;7.30;;;;;;;22.68;40.54;101673.29;105840;1254;64008;-85
2023/05/13 05:32:58;;;;;;;10.60;8.10;;;;;;;22.94;39.94;101672.23;105867;1254;73649;-85
2023/05/13 05:35:26;;;;;;;5.90;4.70;;;;;;;23.03;38.12;101674.09;105674;1254;60528;-86
2023/05/13 05:37:55;;;;;;;6.50;5.40;;;;;;;23.07;37.55;101674.98;105821;1254;61372;-86
2023/05/13 05:40:23;;;;;;;6.00;4.90;;;;;;;23.18;38.38;101674.81;105829;1255;74823;-86
2023/05/13 05:42:50;;;;;;;7.20;6.10;;;;;;;23.46;37.43;101673.88;105867;1257;65631;-87
2023/05/13 05:45:17;;;;;;;8.10;5.10;;;;;;;23.73;36.89;101673.71;105902;1254;72535;-88
2023/05/13 05:47:44;;;;;;;10.40;5.00;;;;;;;23.81;36.16;101677.42;105854;1256;61586;-86
2023/05/13 05:50:11;;;;;;;10.80;4.90;;;;;;;23.79;36.35;101677.61;105781;1256;61325;-90
2023/05/13 05:52:39;;;;;;;6.80;4.50;;;;;;;23.87;36.39;101679.11;105916;1254;74752;-87
2023/05/13 05:55:07;;;;;;;8.00;4.10;;;;;;;23.92;35.07;101683.05;105769;1257;63887;-87
2023/05/13 05:57:34;;;;;;;9.90;6.50;;;;;;;23.79;34.36;101685.77;105654;1254;73616;-88
2023/05/13 06:00:02;;;;;;;7.10;5.90;;;;;;;23.63;33.60;101686.85;105810;1259;60823;-88
2023/05/13 06:02:30;;;;;;;7.00;4.80;;;;;;;23.37;32.91;101690.48;105925;1254;60451;-88
2023/05/13 06:04:58;;;;;;;10.70;5.10;;;;;;;22.93;33.30;101690.92;105750;1256;74682;-88
2023/05/13 06:07:25;;;;;;;7.40;4.70;;;;;;;22.53;34.35;101692.02;105777;1259;64858;-86
2023/05/13 06:09:52;;;;;;;6.50;4.50;;;;;;;22.22;34.74;101690.95;105674;1257;73528;-88
2023/05/13 06:12:18;;;;;;;7.00;4.90;;;;;;;22.02;35.29;101690.77;105726;1257;60473;-86
2023/05/13 06:14:46;;;;;;;5.40;4.90;;;;;;;21.96;35.91;101688.53;105787;1259;60368;-89
2023/05/13 06:17:13;;;;;;;6.20;4.90;;;;;;;22.01;36.29;101688.98;105993;1259;73662;-87
2023/05/13 06:19:44;;;;;;;8.10;5.50;;;;;;;22.08;36.66;101689.54;107191;1259;64863;-90
2023/05/13 06:22:11;;;;;;;9.80;5.60;;;;;;;22.32;35.89;101685.91;106036;1254;72498;-87
2023/05/13 06:24:41;;;;;;;10.70;5.30;;;;;;;22.65;35.02;101685.67;105875;1259;61355;-87
2023/05/13 06:27:09;;;;;;;7.10;4.80;;;;;;;23.10;34.48;101688.27;105880;1254;934520;-85
2023/05/13 06:31:26;;;;;;;7.60;5.20;;;;;;;23.84;34.08;101693.84;104544;1281;612739;-86
2023/05/13 06:33:53;;;;;;;9.40;7.00;;;;;;;24.32;33.11;101687.10;105167;1266;60971;-85
2023/05/13 06:36:25;;;;;;;9.70;4.80;;;;;;;24.66;33.07;101687.60;105149;1269;60347;-88
2023/05/13 06:38:52;;;;;;;8.90;4.80;;;;;;;25.03;32.09;101686.79;104743;1269;72320;-88
2023/05/13 06:41:22;;;;;;;5.10;4.60;;;;;;;25.36;32.00;101687.64;104778;1269;65105;-88
2023/05/13 06:43:51;;;;;;;9.80;3.60;;;;;;;25.76;31.71;101687.64;104274;1268;854096;-86
2023/05/13 06:46:21;;;;;;;6.50;3.70;;;;;;;26.15;31.20;101687.08;105271;1263;61108;-88
2023/05/13 06:48:51;;;;;;;6.60;4.00;;;;;;;26.51;30.45;101685.75;105192;1263;61777;-87
2023/05/13 06:51:18;;;;;;;12.90;4.00;;;;;;;26.87;29.52;101681.77;105544;1264;72286;-87
2023/05/13 06:53:45;;;;;;;6.40;4.00;;;;;;;27.01;28.23;101681.49;105324;1264;63997;-88
2023/05/13 06:56:12;;;;;;;9.80;4.90;;;;;;;27.01;27.61;101681.59;106671;1262;73583;-86
2023/05/13 06:58:39;;;;;;;6.80;3.90;;;;;;;27.10;27.55;101685.46;108851;1263;60496;-86
2023/05/13 07:01:05;;;;;;;7.80;3.60;;;;;;;27.24;27.82;101681.14;108866;1259;60225;-86
2023/05/13 07:03:33;;;;;;;4.30;3.90;;;;;;;27.48;27.72;101677.35;108186;1259;72961;-88
2023/05/13 07:05:59;;;;;;;9.80;4.10;;;;;;;27.63;26.76;101677.22;105627;1264;63815;-88
2023/05/13 07:08:26;;;;;;;16.20;10.60;;;;;;;27.73;26.88;101677.55;105496;1259;72627;-88
2023/05/13 07:10:53;;;;;;;5.70;4.60;;;;;;;27.81;26.64;101676.22;106235;1259;61049;-87
2023/05/13 07:13:21;;;;;;;7.90;4.50;;;;;;;27.94;26.59;101678.97;106033;1257;60004;-85
2023/05/13 07:15:49;;;;;;;4.70;3.70;;;;;;;28.16;26.20;101681.48;105854;1259;73798;-88
2023/05/13 07:18:16;;;;;;;11.30;5.70;;;;;;;28.35;26.21;101674.80;105798;1261;64794;-86
2023/05/13 07:20:43;;;;;;;11.20;5.50;;;;;;;28.57;25.91;101670.95;106750;1256;72656;-86
2023/05/13 07:23:10;;;;;;;16.70;10.70;;;;;;;28.68;25.34;101667.97;106643;1259;60124;-87
2023/05/13 07:25:37;;;;;;;10.00;6.90;;;;;;;28.70;25.26;101669.70;106945;1255;61213;-83
2023/05/13 07:28:04;;;;;;;7.70;5.80;;;;;;;28.81;24.74;101667.14;108250;1255;72875;-83
2023/05/13 07:30:31;;;;;;;9.40;4.30;;;;;;;28.83;24.30;101665.21;107585;1255;64817;-84
2023/05/13 07:32:58;;;;;;;7.10;4.80;;;;;;;28.87;24.53;101661.73;106527;1251;73220;-87
2023/05/13 07:35:25;;;;;;;7.20;5.50;;;;;;;28.87;24.31;101661.44;106172;1256;62120;-86
2023/05/13 07:37:52;;;;;;;8.60;4.90;;;;;;;28.91;24.00;101660.71;106714;1255;60353;-87
2023/05/13 07:40:19;;;;;;;6.50;4.50;;;;;;;28.98;24.04;101650.04;106624;1257;72859;-87
2023/05/13 07:42:47;;;;;;;8.50;4.40;;;;;;;28.99;23.91;101654.33;106549;1251;64855;-87
2023/05/13 07:45:14;;;;;;;6.20;4.00;;;;;;;28.99;23.79;101650.80;106252;1251;73633;-87
2023/05/13 07:47:41;;;;;;;5.40;4.20;;;;;;;29.17;23.70;101648.73;106192;1251;61529;-88
2023/05/13 07:50:12;;;;;;;28.80;22.30;;;;;;;29.49;23.17;101644.83;106756;1251;60313;-86
2023/05/13 07:52:39;;;;;;;12.00;9.90;;;;;;;29.72;23.14;101646.66;107187;1251;73227;-88
2023/05/13 07:55:07;;;;;;;8.40;4.80;;;;;;;29.84;22.74;101648.48;107808;1251;63941;-88
2023/05/13 07:57:37;;;;;;;8.90;4.90;;;;;;;29.94;22.29;101643.66;107660;1251;72915;-90
2023/05/13 08:00:05;;;;;;;6.00;4.50;;;;;;;29.93;21.83;101642.24;106315;1256;60748;-88
2023/05/13 08:02:42;;;;;;;10.30;4.50;;;;;;;29.94;21.82;101643.95;106221;1251;61387;-90
2023/05/13 08:05:09;;;;;;;7.40;3.80;;;;;;;29.84;21.53;101640.54;105909;1253;73756;-87
2023/05/13 08:07:40;;;;;;;4.10;3.40;;;;;;;29.82;21.75;101636.02;106032;1256;64774;-88
2023/05/13 08:10:07;;;;;;;9.00;5.30;;;;;;;29.94;22.05;101638.25;105836;1251;73498;-87
2023/05/13 08:12:34;;;;;;;6.90;3.40;;;;;;;30.20;21.58;101633.26;105946;1251;60508;-88
2023/05/13 08:15:03;;;;;;;4.00;3.20;;;;;;;30.48;20.99;101627.04;105778;1257;60107;-90
2023/05/13 08:17:30;;;;;;;7.90;3.60;;;;;;;30.74;20.89;101623.31;106229;1256;73821;-86
2023/05/13 08:20:00;;;;;;;4.80;3.00;;;;;;;30.99;21.08;101623.98;105974;1251;63028;-88
2023/05/13 08:22:30;;;;;;;6.30;3.10;;;;;;;31.13;20.69;101621.23;106182;1251;72772;-88
2023/05/13 08:25:00;;;;;;;4.10;2.50;;;;;;;30.99;20.25;101619.77;105810;1254;60423;-87
2023/05/13 08:27:27;;;;;;;8.80;2.90;;;;;;;30.81;20.25;101628.55;105888;1251;62080;-88
2023/05/13 08:29:54;;;;;;;5.00;1.80;;;;;;;30.61;20.46;101619.56;106007;1251;74069;-84
2023/05/13 08:32:21;;;;;;;3.10;1.70;;;;;;;30.36;20.11;101620.13;107151;1255;65536;-86
2023/05/13 08:34:48;;;;;;;4.20;3.50;;;;;;;30.18;20.20;101615.36;106293;1255;72808;-87
2023/05/13 08:37:15;;;;;;;6.20;4.70;;;;;;;30.16;20.54;101618.35;106105;1251;60499;-88
2023/05/13 08:39:42;;;;;;;1.50;1.30;;;;;;;30.28;19.76;101613.17;105928;1251;60212;-90
2023/05/13 08:42:09;;;;;;;3.50;1.40;;;;;;;30.40;19.99;101609.84;106175;1257;74835;-87
2023/05/13 08:44:38;;;;;;;3.60;1.40;;;;;;;30.62;19.62;101607.20;106297;1252;64693;-86
2023/05/13 08:47:25;;;;;;;2.90;2.30;;;;;;;30.83;19.90;101601.35;106303;1255;73190;-88
2023/05/13 08:49:53;;;;;;;2.40;1.30;;;;;;;31.04;19.40;101604.07;106302;1253;61184;-85
2023/05/13 08:52:21;;;;;;;2.80;1.00;;;;;;;31.23;18.86;101603.87;106307;1251;61453;-85
2023/05/13 08:54:48;;;;;;;3.90;1.10;;;;;;;31.41;18.89;101596.79;106459;1251;73959;-87
2023/05/13 08:57:15;;;;;;;4.30;1.40;;;;;;;31.57;18.92;101593.27;105980;1251;63941;-87
2023/05/13 08:59:43;;;;;;;1.80;1.00;;;;;;;31.52;18.65;101589.90;106207;1251;73282;-86
2023/05/13 09:02:09;;;;;;;1.80;1.40;;;;;;;31.29;19.05;101586.34;106432;1257;60025;-85
2023/05/13 09:04:38;;;;;;;2.60;1.40;;;;;;;31.07;19.29;101587.20;106483;1255;59963;-86
2023/05/13 09:07:04;;;;;;;2.20;1.10;;;;;;;30.82;19.68;101588.43;106499;1251;73927;-85
2023/05/13 09:09:32;;;;;;;2.50;1.40;;;;;;;30.54;19.54;101582.88;106441;1251;65081;-84
2023/05/13 09:11:59;;;;;;;4.30;2.10;;;;;;;30.21;19.87;101572.42;106522;1251;72638;-88
2023/05/13 09:14:30;;;;;;;4.90;1.20;;;;;;;29.90;20.21;101572.73;106123;1256;60753;-84
2023/05/13 09:16:57;;;;;;;11.50;2.00;;;;;;;29.86;20.07;101568.23;106363;1251;60322;-85
2023/05/13 09:19:24;;;;;;;5.60;1.60;;;;;;;29.95;20.16;101569.55;106207;1256;72962;-86
2023/05/13 09:21:52;;;;;;;4.90;2.40;;;;;;;30.12;20.11;101563.13;106380;1252;64781;-84
2023/05/13 09:24:20;;;;;;;11.70;1.70;;;;;;;30.28;20.27;101563.04;106564;1251;73077;-85
2023/05/13 09:26:49;;;;;;;8.30;4.80;;;;;;;30.41;19.47;101558.12;106151;1251;60620;-84
2023/05/13 09:29:21;;;;;;;4.60;1.40;;;;;;;30.63;19.44;101555.89;106008;1251;60692;-88
2023/05/13 09:31:57;;;;;;;4.30;2.00;;;;;;;30.88;19.48;101550.13;106203;1251;73824;-86
2023/05/13 09:34:33;;;;;;;3.50;1.20;;;;;;;31.03;19.22;101550.80;106001;1251;64714;-86
2023/05/13 09:37:04;;;;;;;5.20;1.70;;;;;;;31.08;18.76;101546.77;106123;1251;72715;-85
2023/05/13 09:39:38;;;;;;;4.80;1.50;;;;;;;31.10;18.95;101544.27;106365;1251;60286;-85
2023/05/13 09:42:13;;;;;;;7.10;1.80;;;;;;;31.18;18.80;101537.77;106733;1251;61334;-84
2023/05/13 09:44:42;;;;;;;1.30;1.20;;;;;;;31.24;18.58;101537.16;107208;1251;74275;-84
2023/05/13 09:47:13;;;;;;;4.30;1.00;;;;;;;31.10;18.44;101532.42;107256;1251;64331;-87
2023/05/13 09:49:42;;;;;;;4.40;1.40;;;;;;;30.82;19.07;101534.63;107384;1251;73554;-85
2023/05/13 09:52:10;;;;;;;3.40;1.40;;;;;;;30.54;19.01;101532.90;107458;1251;60286;-88
2023/05/13 09:54:38;;;;;;;2.70;1.20;;;;;;;30.38;19.03;101524.95;108012;1251;60341;-84
2023/05/13 09:57:05;;;;;;;3.90;1.60;;;;;;;30.30;18.96;101525.13;108821;1251;72761;-84
2023/05/13 09:59:33;;;;;;;4.20;1.80;;;;;;;30.33;18.97;101520.89;108147;1251;63709;-82
2023/05/13 10:02:07;;;;;;;1.40;1.20;;;;;;;30.48;19.55;101514.18;108028;1251;72392;-85
2023/05/13 10:04:35;;;;;;;9.00;1.40;;;;;;;30.64;18.55;101520.77;107383;1251;60027;-87
2023/05/13 10:07:03;;;;;;;1.30;1.00;;;;;;;30.58;18.69;101516.55;106560;1251;62606;-87
2023/05/13 10:09:33;;;;;;;4.60;1.50;;;;;;;30.54;18.94;101517.45;106436;1251;73979;-86
2023/05/13 10:12:01;;;;;;;6.10;1.50;;;;;;;30.51;18.82;101513.27;106283;1251;64899;-87
2023/05/13 10:14:30;;;;;;;4.70;1.40;;;;;;;30.51;19.23;101510.39;106435;1251;73334;-87
2023/05/13 10:16:58;;;;;;;4.70;1.70;;;;;;;30.58;18.54;101509.16;106445;1255;61918;-86
2023/05/13 10:19:25;;;;;;;6.00;3.60;;;;;;;30.65;18.50;101503.19;106120;1251;60167;-86
2023/05/13 10:21:53;;;;;;;32.10;28.80;;;;;;;30.74;18.62;101501.76;105958;1255;74033;-89
2023/05/13 10:24:21;;;;;;;14.40;12.90;;;;;;;30.88;18.48;101496.07;106055;1255;63527;-87
2023/05/13 10:26:49;;;;;;;4.50;1.20;;;;;;;31.02;18.27;101498.65;106381;1251;73733;-89
2023/05/13 10:29:18;;;;;;;3.70;2.50;;;;;;;31.04;18.41;101500.36;106197;1251;61165;-89
2023/05/13 10:31:45;;;;;;;2.90;2.00;;;;;;;31.07;18.75;101497.95;106202;1251;61230;-84
2023/05/13 10:34:12;;;;;;;1.20;1.10;;;;;;;31.06;18.36;101494.28;106169;1251;73800;-85
2023/05/13 10:37:09;;;;;;;3.10;1.30;;;;;;;30.99;18.42;101497.23;106268;1251;64527;-86
2023/05/13 10:40:12;;;;;;;2.40;1.20;;;;;;;31.05;18.52;101492.31;106356;1253;72651;-88
2023/05/13 10:42:41;;;;;;;1.70;1.20;;;;;;;31.32;18.18;101499.02;106166;1251;61179;-85
2023/05/13 10:45:09;;;;;;;4.50;1.40;;;;;;;31.43;17.88;101491.06;106494;1251;61603;-85
2023/05/13 10:47:37;;;;;;;3.00;1.30;;;;;;;31.48;17.68;101493.61;106376;1257;74833;-87
2023/05/13 10:50:27;;;;;;;2.20;0.80;;;;;;;31.50;17.61;101494.16;106415;1257;63716;-85
2023/05/13 10:52:56;;;;;;;7.10;1.60;;;;;;;31.43;17.75;101494.65;106714;1251;73998;-84
2023/05/13 10:55:25;;;;;;;2.60;1.10;;;;;;;31.34;17.25;101498.59;106786;1251;61363;-86
2023/05/13 10:58:12;;;;;;;5.60;1.20;;;;;;;31.15;17.79;101492.91;106138;1251;61569;-84
2023/05/13 11:00:43;;;;;;;3.50;1.30;;;;;;;31.05;18.17;101492.27;106255;1251;73800;-86
2023/05/13 11:03:17;;;;;;;4.60;1.20;;;;;;;30.92;17.47;101485.13;106122;1255;64661;-84
2023/05/13 11:06:13;;;;;;;8.40;1.40;;;;;;;30.65;18.35;101487.95;106095;1255;73989;-85
2023/05/13 11:08:45;;;;;;;2.40;1.40;;;;;;;30.61;18.78;101487.56;106118;1251;60849;-85
2023/05/13 11:11:21;;;;;;;5.50;0.90;;;;;;;30.49;18.37;101483.81;105991;1251;61156;-88
2023/05/13 11:13:52;;;;;;;2.20;1.30;;;;;;;30.29;18.36;101480.39;106134;1255;75633;-88
2023/05/13 11:16:19;;;;;;;2.70;1.40;;;;;;;30.18;18.11;101474.33;106204;1255;63437;-84
2023/05/13 11:18:47;;;;;;;4.10;1.80;;;;;;;30.09;18.08;101470.46;106045;1251;73654;-85
2023/05/13 11:21:15;;;;;;;1.90;1.10;;;;;;;30.04;18.97;101470.30;106095;1256;61363;-85